Weather History for St. Marys, AK

Change the Weather History Date:

Wednesday, October 2, 2013

  Actual Average Record
Temperature  
Mean Temperature 29 °F -  
Max Temperature 39 °F 39 °F 50 °F (2006)
Min Temperature 19 °F 29 °F 19 °F (2011)
Degree Days  
Heating Degree Days 36    
Moisture  
Dew Point 18 °F    
Average Humidity 70    
Maximum Humidity 86    
Minimum Humidity 52    
Precipitation  
Precipitation 0.00 in - - ()
Sea Level Pressure  
Sea Level Pressure 29.91 in    
Wind  
Wind Speed 6 mph (NE)    
Max Wind Speed 13 mph    
Max Gust Speed 17 mph    
Visibility 10 miles    
Events      
Averages and records for this station are not official NWS values.
T = Trace of Precipitation, MM = Missing Value Source: NWS Daily Summary

Daily Weather History Graph

Daily Weather History Graph

Search for Another Location

Airport:

Trip Planner

Search our weather history database for the weather conditions in past years. The results will help you decide how hot, cold, wet, or windy it might be!

Date:

Astronomy

Oct. 02, 2013 Rise Set
Actual Time 9:04 AM AKDT 8:19 PM AKDT
Civil Twilight 8:20 AM AKDT 9:03 PM AKDT
Nautical Twilight 7:27 AM AKDT 9:54 PM AKDT
Astronomical Twilight 6:32 AM AKDT 10:49 PM AKDT
Moon 6:20 AM AKDT (10/2) 7:21 PM AKDT (10/2)
Length of Visible Light 12h 43m
Length of Day
11h 14m
Waning Crescent, 5% of the Moon is Illuminated
Oct 2
Waning Crescent
Oct 4
New
Oct 11
First Quarter
Oct 18
Full
Oct 26
Last Quarter

Hourly Weather History & Observations

Time (AKDT) Temp. Windchill Dew Point Humidity Pressure Visibility Wind Dir Wind Speed Gust Speed Precip Events Conditions
12:16 AM 23.0 °F 17.0 °F 15.8 °F 74% 29.99 in 10.0 mi NNE 4.6 mph - N/A   Clear
12:36 AM 21.2 °F 13.6 °F 15.8 °F 80% 29.98 in 10.0 mi NNE 5.8 mph - N/A   Clear
12:56 AM 21.2 °F 14.9 °F 15.8 °F 80% 29.98 in 10.0 mi NE 4.6 mph - N/A   Clear
1:16 AM 19.4 °F 12.8 °F 14.0 °F 80% 29.98 in 10.0 mi NE 4.6 mph - N/A   Clear
1:36 AM 19.4 °F 12.8 °F 14.0 °F 80% 29.99 in 10.0 mi NNE 4.6 mph - N/A   Clear
1:56 AM 21.2 °F 13.6 °F 15.8 °F 80% 29.98 in 10.0 mi NE 5.8 mph - N/A   Clear
2:16 AM 21.2 °F 14.9 °F 15.8 °F 80% 29.98 in 10.0 mi NE 4.6 mph - N/A   Clear
2:36 AM 21.2 °F 13.6 °F 15.8 °F 80% 29.98 in 10.0 mi NE 5.8 mph - N/A   Clear
2:56 AM 19.4 °F 11.5 °F 14.0 °F 80% 29.97 in 10.0 mi NE 5.8 mph - N/A   Clear
3:16 AM 21.2 °F 13.6 °F 15.8 °F 80% 29.97 in 10.0 mi NE 5.8 mph - N/A   Clear
3:36 AM 21.2 °F 13.6 °F 15.8 °F 80% 29.97 in 10.0 mi NNE 5.8 mph - N/A   Clear
3:56 AM 19.4 °F 11.5 °F 14.0 °F 80% 29.96 in 10.0 mi NE 5.8 mph - N/A   Clear
4:16 AM 19.4 °F 10.4 °F 14.0 °F 80% 29.96 in 10.0 mi NE 6.9 mph - N/A   Clear
4:36 AM 19.4 °F 12.8 °F 12.2 °F 74% 29.96 in 10.0 mi NE 4.6 mph - N/A   Clear
4:56 AM 19.4 °F 11.5 °F 14.0 °F 80% 29.95 in 10.0 mi NE 5.8 mph - N/A   Clear
5:16 AM 19.4 °F 12.8 °F 12.2 °F 74% 29.95 in 10.0 mi NE 4.6 mph - N/A   Clear
5:36 AM 19.4 °F 11.5 °F 12.2 °F 74% 29.95 in 10.0 mi NNE 5.8 mph - N/A   Clear
5:56 AM 19.4 °F 11.5 °F 12.2 °F 74% 29.94 in 10.0 mi NE 5.8 mph - N/A   Clear
6:16 AM 19.4 °F 11.5 °F 12.2 °F 74% 29.94 in 10.0 mi NE 5.8 mph - N/A   Clear
6:36 AM 19.4 °F 12.8 °F 12.2 °F 74% 29.93 in 10.0 mi NNE 4.6 mph - N/A   Clear
6:56 AM 19.4 °F 12.8 °F 12.2 °F 74% 29.94 in 10.0 mi NE 4.6 mph - N/A   Clear
7:16 AM 19.4 °F 11.5 °F 12.2 °F 74% 29.94 in 10.0 mi NE 5.8 mph - N/A   Clear
7:36 AM 19.4 °F 11.5 °F 14.0 °F 80% 29.94 in 10.0 mi NE 5.8 mph - N/A   Clear
7:56 AM 19.4 °F 10.4 °F 15.8 °F 86% 29.94 in 10.0 mi NE 6.9 mph - N/A   Clear
8:16 AM 21.2 °F 12.6 °F 15.8 °F 80% 29.94 in 10.0 mi NE 6.9 mph - N/A   Clear
8:36 AM 21.2 °F 12.6 °F 15.8 °F 80% 29.94 in 10.0 mi NE 6.9 mph - N/A   Clear
8:56 AM 19.4 °F 9.5 °F 15.8 °F 86% 29.94 in 10.0 mi ENE 8.1 mph - N/A   Clear
9:16 AM 21.2 °F 11.7 °F 15.8 °F 80% 29.93 in 10.0 mi NE 8.1 mph - N/A   Clear
9:36 AM 19.4 °F 10.4 °F 15.8 °F 86% 29.93 in 10.0 mi NE 6.9 mph - N/A   Clear
9:56 AM 21.2 °F 13.6 °F 15.8 °F 80% 29.93 in 10.0 mi NE 5.8 mph - N/A   Clear
10:16 AM 21.2 °F 13.6 °F 15.8 °F 80% 29.93 in 10.0 mi NE 5.8 mph - N/A   Clear
10:36 AM 23.0 °F 14.7 °F 17.6 °F 80% 29.92 in 10.0 mi ENE 6.9 mph - N/A   Clear
10:56 AM 24.8 °F 16.1 °F 17.6 °F 74% 29.92 in 10.0 mi East 8.1 mph - N/A   Clear
11:16 AM 26.6 °F 19.1 °F 19.4 °F 74% 29.92 in 10.0 mi ENE 6.9 mph - N/A   Clear
11:36 AM 26.6 °F 17.5 °F 19.4 °F 74% 29.92 in 10.0 mi NE 9.2 mph - N/A   Clear
11:56 AM 28.4 °F 19.1 °F 19.4 °F 69% 29.92 in 10.0 mi ENE 10.4 mph - N/A   Clear
12:16 PM 30.2 °F 21.3 °F 21.2 °F 69% 29.92 in 10.0 mi NE 10.4 mph - N/A   Clear
12:36 PM 30.2 °F 21.3 °F 21.2 °F 69% 29.92 in 10.0 mi ENE 10.4 mph 17.3 mph N/A   Clear
12:56 PM 33.8 °F 25.8 °F 23.0 °F 65% 29.91 in 10.0 mi NE 10.4 mph 17.3 mph N/A   Clear
1:16 PM 35.6 °F 28.0 °F 23.0 °F 60% 29.91 in 10.0 mi NE 10.4 mph 17.3 mph N/A   Clear
1:36 PM 35.6 °F 27.1 °F 23.0 °F 60% 29.91 in 10.0 mi NE 12.7 mph 17.3 mph N/A   Clear
1:56 PM 35.6 °F 28.0 °F 23.0 °F 60% 29.91 in 10.0 mi NE 10.4 mph 17.3 mph N/A   Clear
2:16 PM 37.4 °F 30.8 °F 23.0 °F 56% 29.90 in 10.0 mi NE 9.2 mph 17.3 mph N/A   Clear
2:36 PM 37.4 °F 29.8 °F 23.0 °F 56% 29.90 in 10.0 mi NE 11.5 mph 16.1 mph N/A   Clear
2:56 PM 37.4 °F 29.8 °F 23.0 °F 56% 29.89 in 10.0 mi NE 11.5 mph - N/A   Clear
3:16 PM 37.4 °F 32.1 °F 23.0 °F 56% 29.89 in 10.0 mi NE 6.9 mph - N/A   Clear
3:36 PM 39.2 °F 32.0 °F 24.8 °F 56% 29.88 in 10.0 mi NE 11.5 mph 17.3 mph N/A   Partly Cloudy
3:56 PM 39.2 °F 33.0 °F 23.0 °F 52% 29.88 in 10.0 mi NE 9.2 mph - N/A   Clear
4:16 PM 39.2 °F 32.5 °F 24.8 °F 56% 29.87 in 10.0 mi NNE 10.4 mph - N/A   Partly Cloudy
4:36 PM 39.2 °F 33.0 °F 23.0 °F 52% 29.87 in 10.0 mi NNE 9.2 mph - N/A   Partly Cloudy
4:56 PM 39.2 °F 34.2 °F 23.0 °F 52% 29.86 in 10.0 mi NE 6.9 mph - N/A   Clear
5:16 PM 39.2 °F 33.0 °F 23.0 °F 52% 29.86 in 10.0 mi NNE 9.2 mph - N/A   Clear
5:36 PM 39.2 °F 33.0 °F 23.0 °F 52% 29.85 in 10.0 mi NNE 9.2 mph - N/A   Clear
5:56 PM 39.2 °F 32.5 °F 23.0 °F 52% 29.86 in 10.0 mi NNE 10.4 mph - N/A   Clear
6:16 PM 39.2 °F 32.5 °F 23.0 °F 52% 29.85 in 10.0 mi NNE 10.4 mph - N/A   Clear
6:36 PM 39.2 °F 34.2 °F 23.0 °F 52% 29.85 in 10.0 mi NE 6.9 mph - N/A   Clear
6:56 PM 39.2 °F 33.0 °F 23.0 °F 52% 29.85 in 10.0 mi NNE 9.2 mph - N/A   Clear
7:16 PM 37.4 °F 32.8 °F 23.0 °F 56% 29.85 in 10.0 mi NNE 5.8 mph - N/A   Clear
7:36 PM 37.4 °F 32.1 °F 21.2 °F 52% 29.85 in 10.0 mi NNE 6.9 mph - N/A   Clear
7:56 PM 35.6 °F 28.6 °F 21.2 °F 56% 29.85 in 10.0 mi NNE 9.2 mph - N/A   Clear
8:16 PM 32.0 °F 25.6 °F 21.2 °F 64% 29.86 in 10.0 mi NE 6.9 mph - N/A   Clear
8:36 PM 30.2 °F 24.3 °F 21.2 °F 69% 29.86 in 10.0 mi NE 5.8 mph - N/A   Clear
8:56 PM 28.4 °F 24.6 °F 19.4 °F 69% 29.86 in 10.0 mi NE 3.5 mph - N/A   Clear
9:16 PM 28.4 °F 24.6 °F 19.4 °F 69% 29.86 in 10.0 mi NNE 3.5 mph - N/A   Clear
9:36 PM 26.6 °F 20.0 °F 19.4 °F 74% 29.86 in 10.0 mi NNE 5.8 mph - N/A   Clear
9:56 PM 26.6 °F 20.0 °F 19.4 °F 74% 29.87 in 10.0 mi NNE 5.8 mph - N/A   Clear
10:16 PM 26.6 °F 21.2 °F 19.4 °F 74% 29.87 in 10.0 mi NE 4.6 mph - N/A   Clear
10:36 PM 24.8 °F 19.1 °F 19.4 °F 80% 29.86 in 10.0 mi NNE 4.6 mph - N/A   Clear
10:56 PM 24.8 °F 16.9 °F 19.4 °F 80% 29.87 in 10.0 mi NNE 6.9 mph - N/A   Clear
11:16 PM 24.8 °F 19.1 °F 19.4 °F 80% 29.87 in 10.0 mi NE 4.6 mph - N/A   Clear
11:36 PM 24.8 °F 16.9 °F 19.4 °F 80% 29.87 in 10.0 mi NE 6.9 mph - N/A   Clear
11:56 PM 24.8 °F 17.9 °F 17.6 °F 74% 29.87 in 10.0 mi NE 5.8 mph - N/A   Clear